createdAt,value
2023-07-31T00:03:38.364Z,2.53
2023-07-31T00:08:39.840Z,2.67
2023-07-31T00:13:41.364Z,2.35
2023-07-31T00:18:42.779Z,2.05
2023-07-31T00:23:44.192Z,2.00
2023-07-31T00:28:45.653Z,1.85
2023-07-31T00:33:47.117Z,2.15
2023-07-31T00:38:48.544Z,1.88
2023-07-31T00:43:50.078Z,2.10
2023-07-31T00:48:51.731Z,2.10
2023-07-31T00:53:53.959Z,1.95
2023-07-31T00:58:56.373Z,1.90
2023-07-31T01:03:57.872Z,2.30
2023-07-31T01:09:11.203Z,1.90
2023-07-31T01:14:12.626Z,1.75
2023-07-31T01:19:15.767Z,1.85
2023-07-31T01:24:23.045Z,1.90
2023-07-31T01:29:34.895Z,2.13
2023-07-31T01:34:37.642Z,1.70
2023-07-31T01:39:39.061Z,1.70
2023-07-31T01:44:40.532Z,2.00
2023-07-31T01:49:42.014Z,1.73
2023-07-31T01:54:43.444Z,1.90
2023-07-31T01:59:44.872Z,1.90
2023-07-31T02:04:46.674Z,1.90
2023-07-31T02:09:48.145Z,1.70
2023-07-31T02:14:49.558Z,1.95
2023-07-31T02:19:51.032Z,2.35
2023-07-31T02:24:52.527Z,1.90
2023-07-31T02:29:54.184Z,1.80
2023-07-31T02:34:55.642Z,2.30
2023-07-31T02:39:57.085Z,2.10
2023-07-31T02:44:58.574Z,2.20
2023-07-31T02:50:00.011Z,2.20
2023-07-31T02:55:01.434Z,2.17
2023-07-31T03:00:03.081Z,2.35
2023-07-31T03:05:04.700Z,2.72
2023-07-31T03:10:06.735Z,2.47
2023-07-31T03:15:08.827Z,2.83
2023-07-31T03:20:10.765Z,2.72
2023-07-31T03:25:12.200Z,2.67
2023-07-31T03:30:13.647Z,2.70
2023-07-31T03:35:15.072Z,2.78
2023-07-31T03:40:16.522Z,2.80
2023-07-31T03:45:17.999Z,2.50
2023-07-31T03:50:19.466Z,2.40
2023-07-31T03:55:22.784Z,2.20
2023-07-31T04:00:24.358Z,2.38
2023-07-31T04:05:25.863Z,1.95
2023-07-31T04:10:27.361Z,2.10
2023-07-31T04:15:28.802Z,1.88
2023-07-31T04:20:30.225Z,1.88
2023-07-31T04:25:31.677Z,1.40
2023-07-31T04:30:33.093Z,1.20
2023-07-31T04:35:34.543Z,1.10
2023-07-31T04:40:35.990Z,0.95
2023-07-31T04:45:37.469Z,0.90
2023-07-31T04:50:38.876Z,0.95
2023-07-31T04:55:40.337Z,0.95
2023-07-31T05:00:41.774Z,0.80
2023-07-31T05:05:43.252Z,0.80
2023-07-31T05:10:45.025Z,0.60
2023-07-31T05:15:46.621Z,0.80
2023-07-31T05:20:48.055Z,0.93
2023-07-31T05:25:49.529Z,0.90
2023-07-31T05:30:50.998Z,0.90
2023-07-31T05:35:52.418Z,1.40
2023-07-31T05:40:53.903Z,1.25
2023-07-31T05:45:55.435Z,1.23
2023-07-31T05:50:57.068Z,1.25
2023-07-31T05:56:31.798Z,1.17
2023-07-31T06:01:33.326Z,1.30
2023-07-31T06:06:36.025Z,1.15
2023-07-31T06:11:37.432Z,0.80
2023-07-31T06:16:39.218Z,1.17
2023-07-31T06:21:40.964Z,1.02
2023-07-31T06:26:42.648Z,0.98
2023-07-31T06:31:44.508Z,1.33
2023-07-31T06:36:46.052Z,1.38
2023-07-31T06:41:47.509Z,1.30
2023-07-31T06:46:49.452Z,1.48
2023-07-31T06:51:51.119Z,1.10
2023-07-31T06:56:52.602Z,1.02
2023-07-31T07:01:54.152Z,1.00
2023-07-31T07:06:55.563Z,0.90
2023-07-31T07:11:57.025Z,1.30
2023-07-31T07:16:58.629Z,1.83
2023-07-31T07:22:00.103Z,2.33
2023-07-31T07:27:01.792Z,3.13
2023-07-31T07:32:03.282Z,3.22
2023-07-31T07:37:04.937Z,3.97
2023-07-31T07:42:06.435Z,5.13
2023-07-31T07:47:07.978Z,5.30
2023-07-31T07:52:09.398Z,5.88
2023-07-31T07:57:10.834Z,6.22
2023-07-31T08:02:12.285Z,6.88
2023-07-31T08:07:13.968Z,6.93
2023-07-31T08:12:15.399Z,6.97
2023-07-31T08:17:16.834Z,6.50
2023-07-31T08:22:18.417Z,8.43
2023-07-31T08:27:19.881Z,8.45
2023-07-31T08:32:21.318Z,7.90
2023-07-31T08:37:22.737Z,7.65
2023-07-31T08:42:24.233Z,8.25
2023-07-31T08:47:28.426Z,8.38
2023-07-31T08:52:29.926Z,7.38
2023-07-31T08:57:31.852Z,6.43
2023-07-31T09:02:46.194Z,5.72
2023-07-31T09:07:49.150Z,6.05
2023-07-31T09:12:53.098Z,4.82
2023-07-31T09:18:01.963Z,5.15
2023-07-31T09:23:10.218Z,4.90
2023-07-31T09:28:12.631Z,4.95
2023-07-31T09:33:14.664Z,4.78
2023-07-31T09:38:17.004Z,4.35
2023-07-31T09:43:22.765Z,3.67
2023-07-31T09:48:25.078Z,3.92
2023-07-31T09:53:30.552Z,2.90
2023-07-31T09:58:36.032Z,2.83
2023-07-31T10:03:38.794Z,2.70
2023-07-31T10:08:41.123Z,3.47
2023-07-31T10:13:43.188Z,2.80
2023-07-31T10:18:45.915Z,2.63
2023-07-31T10:23:48.420Z,2.45
2023-07-31T10:28:51.840Z,1.88
2023-07-31T10:33:54.904Z,2.63
2023-07-31T10:38:59.154Z,2.15
2023-07-31T10:44:01.971Z,1.80
2023-07-31T10:49:04.275Z,1.65
2023-07-31T10:54:13.375Z,1.70
2023-07-31T10:59:15.024Z,1.13
2023-07-31T11:04:23.372Z,1.38
2023-07-31T11:09:28.937Z,1.20
2023-07-31T11:14:30.711Z,1.05
2023-07-31T11:19:32.203Z,0.90
2023-07-31T11:24:33.690Z,1.00
2023-07-31T11:29:35.199Z,0.90
2023-07-31T11:34:52.463Z,0.80
2023-07-31T11:40:01.194Z,1.00
2023-07-31T11:45:06.644Z,0.80
2023-07-31T11:50:12.030Z,0.80
2023-07-31T11:55:14.383Z,0.70
2023-07-31T12:00:19.859Z,0.73
2023-07-31T12:05:23.208Z,0.75
2023-07-31T12:10:33.077Z,0.80
2023-07-31T12:15:40.193Z,1.00
2023-07-31T12:20:47.024Z,0.88
2023-07-31T12:25:48.542Z,1.20
2023-07-31T12:30:50.006Z,1.20
2023-07-31T12:35:52.707Z,1.50
2023-07-31T12:40:54.130Z,1.38
2023-07-31T12:45:56.342Z,2.15
2023-07-31T12:50:58.307Z,1.38
2023-07-31T12:56:00.120Z,1.20
2023-07-31T13:01:01.568Z,1.60
2023-07-31T13:06:03.081Z,1.52
2023-07-31T13:11:04.489Z,1.90
2023-07-31T13:16:06.218Z,2.35
2023-07-31T13:21:07.700Z,3.63
2023-07-31T13:26:09.106Z,2.33
2023-07-31T13:31:10.627Z,2.45
2023-07-31T13:36:12.097Z,2.60
2023-07-31T13:41:13.612Z,2.72
2023-07-31T13:46:15.149Z,3.05
2023-07-31T13:51:17.109Z,3.47
2023-07-31T13:56:18.606Z,4.30
2023-07-31T14:01:20.139Z,4.50
2023-07-31T14:06:21.659Z,5.15
2023-07-31T14:11:23.841Z,5.63
2023-07-31T14:16:25.450Z,5.30
2023-07-31T14:21:27.212Z,5.28
2023-07-31T14:26:28.856Z,4.72
2023-07-31T14:31:30.959Z,4.32
2023-07-31T14:36:32.618Z,4.30
2023-07-31T14:41:34.218Z,4.05
2023-07-31T14:46:35.807Z,3.97
2023-07-31T14:51:37.349Z,4.68
2023-07-31T14:56:39.245Z,3.58
2023-07-31T15:01:40.951Z,4.07
2023-07-31T15:06:42.755Z,3.38
2023-07-31T15:11:44.685Z,3.58
2023-07-31T15:16:46.901Z,2.58
2023-07-31T15:21:48.447Z,2.63
2023-07-31T15:26:49.896Z,2.78
2023-07-31T15:31:53.921Z,2.95
2023-07-31T15:36:55.441Z,2.30
2023-07-31T15:41:57.138Z,3.50
2023-07-31T15:46:58.567Z,3.35
2023-07-31T15:52:00.959Z,3.85
2023-07-31T15:57:02.495Z,4.50
2023-07-31T16:02:04.275Z,4.35
2023-07-31T16:07:06.073Z,3.90
2023-07-31T16:12:07.800Z,3.47
2023-07-31T16:17:09.291Z,2.67
2023-07-31T16:22:10.793Z,2.92
2023-07-31T16:27:12.215Z,2.90
2023-07-31T16:32:13.661Z,3.03
2023-07-31T16:37:15.601Z,2.83
2023-07-31T16:42:17.033Z,2.83
2023-07-31T16:47:18.829Z,3.65
2023-07-31T16:52:20.751Z,3.88
2023-07-31T16:57:24.443Z,3.72
2023-07-31T17:02:26.515Z,4.38
2023-07-31T17:07:28.652Z,4.43
2023-07-31T17:12:30.058Z,4.07
2023-07-31T17:17:31.698Z,4.78
2023-07-31T17:22:46.589Z,5.30
2023-07-31T17:27:52.264Z,5.22
2023-07-31T17:32:54.994Z,5.70
2023-07-31T17:37:58.186Z,5.85
2023-07-31T17:43:00.779Z,5.45
2023-07-31T17:48:02.442Z,5.38
2023-07-31T17:53:05.867Z,4.60
2023-07-31T17:58:09.040Z,4.20
2023-07-31T18:03:10.552Z,4.07
2023-07-31T18:08:12.056Z,4.43
2023-07-31T18:13:15.675Z,4.20
2023-07-31T18:18:17.117Z,3.85
2023-07-31T18:23:18.553Z,3.83
2023-07-31T18:28:20.013Z,3.85
2023-07-31T18:33:21.410Z,3.40
2023-07-31T18:38:22.848Z,2.58
2023-07-31T18:43:24.288Z,2.30
2023-07-31T18:48:25.716Z,2.20
2023-07-31T18:53:27.447Z,1.75
2023-07-31T18:58:28.860Z,1.83
2023-07-31T19:03:30.718Z,1.77
2023-07-31T19:08:32.642Z,1.73
2023-07-31T19:13:34.099Z,1.95
2023-07-31T19:18:35.711Z,1.73
2023-07-31T19:23:37.776Z,2.22
2023-07-31T19:28:39.185Z,1.83
2023-07-31T19:33:40.624Z,4.55
2023-07-31T19:38:42.025Z,1.13
2023-07-31T19:43:43.417Z,1.02
2023-07-31T19:48:45.019Z,1.20
2023-07-31T19:53:47.091Z,1.00
2023-07-31T19:58:48.487Z,0.82
2023-07-31T20:03:50.692Z,0.80
2023-07-31T20:08:52.121Z,1.33
2023-07-31T20:13:53.598Z,1.13
2023-07-31T20:18:54.991Z,1.70
2023-07-31T20:23:56.513Z,2.33
2023-07-31T20:28:57.923Z,1.60
2023-07-31T20:33:59.358Z,1.73
2023-07-31T20:39:01.090Z,1.30
2023-07-31T20:44:03.417Z,1.02
2023-07-31T20:49:04.855Z,1.60
2023-07-31T20:54:06.602Z,1.50
2023-07-31T20:59:08.128Z,1.30
2023-07-31T21:04:09.713Z,1.42
2023-07-31T21:09:11.216Z,1.23
2023-07-31T21:14:12.671Z,1.50
2023-07-31T21:19:14.248Z,1.25
2023-07-31T21:24:15.729Z,1.30
2023-07-31T21:29:17.230Z,1.00
2023-07-31T21:34:18.675Z,1.02
2023-07-31T21:39:20.334Z,1.20
2023-07-31T21:44:21.822Z,1.00
2023-07-31T21:49:23.277Z,1.10
2023-07-31T21:54:24.992Z,1.08
2023-07-31T21:59:26.472Z,1.15
2023-07-31T22:04:28.340Z,1.45
2023-07-31T22:09:29.860Z,1.38
2023-07-31T22:14:31.393Z,1.50
2023-07-31T22:19:32.852Z,1.60
2023-07-31T22:24:34.388Z,2.10
2023-07-31T22:29:35.856Z,2.35
2023-07-31T22:34:37.334Z,2.78
2023-07-31T22:39:41.713Z,3.00
2023-07-31T22:44:43.210Z,3.05
2023-07-31T22:49:44.653Z,4.13
2023-07-31T22:54:46.210Z,3.58
2023-07-31T22:59:47.635Z,4.35
2023-07-31T23:04:49.085Z,4.13
2023-07-31T23:09:50.540Z,5.00
2023-07-31T23:14:53.190Z,5.65
2023-07-31T23:19:54.725Z,5.07
2023-07-31T23:24:56.322Z,4.90
2023-07-31T23:29:57.783Z,5.30
2023-07-31T23:34:59.526Z,4.65
2023-07-31T23:40:01.035Z,5.00
2023-07-31T23:45:10.771Z,4.65
2023-07-31T23:50:13.136Z,4.85
2023-07-31T23:55:15.127Z,5.88
